createdAt,value
2023-02-25T00:00:13.699Z,7.80
2023-02-25T00:06:47.693Z,7.85
2023-02-25T00:10:03.896Z,7.88
2023-02-25T00:13:19.971Z,7.77
2023-02-25T00:16:37.021Z,7.81
2023-02-25T00:23:09.144Z,7.83
2023-02-25T00:26:26.405Z,7.81
2023-02-25T00:29:43.080Z,7.76
2023-02-25T00:38:15.683Z,7.71
2023-02-25T00:41:31.038Z,7.68
2023-02-25T00:44:48.892Z,7.66
2023-02-25T00:53:35.629Z,7.25
2023-02-25T00:56:52.134Z,7.19
2023-02-25T01:00:11.177Z,7.21
2023-02-25T01:03:27.703Z,7.14
2023-02-25T01:06:45.917Z,7.14
2023-02-25T01:10:04.887Z,7.05
2023-02-25T01:13:21.593Z,7.04
2023-02-25T01:16:39.950Z,6.99
2023-02-25T01:23:13.160Z,6.92
2023-02-25T01:26:29.302Z,6.92
2023-02-25T01:29:47.641Z,6.92
2023-02-25T01:37:56.163Z,6.75
2023-02-25T01:41:13.031Z,6.63
2023-02-25T01:44:35.239Z,6.55
2023-02-25T01:47:54.262Z,6.48
2023-02-25T01:54:28.721Z,6.35
2023-02-25T01:57:45.352Z,6.22
2023-02-25T02:01:02.152Z,6.23
2023-02-25T02:04:21.575Z,6.32
2023-02-25T02:07:37.686Z,6.28
2023-02-25T02:10:53.768Z,6.23
2023-02-25T02:14:13.718Z,6.25
2023-02-25T02:17:35.301Z,6.17
2023-02-25T02:21:00.414Z,6.06
2023-02-25T02:25:07.795Z,6.19
2023-02-25T02:28:54.183Z,6.14
2023-02-25T02:32:21.513Z,5.95
2023-02-25T02:35:45.015Z,5.92
2023-02-25T02:39:05.554Z,5.82
2023-02-25T02:42:30.561Z,5.73
2023-02-25T02:45:52.882Z,5.61
2023-02-25T02:52:29.191Z,5.55
2023-02-25T02:55:51.201Z,5.63
2023-02-25T02:59:12.191Z,5.61
2023-02-25T03:02:33.679Z,5.64
2023-02-25T03:09:10.221Z,5.63
2023-02-25T03:12:27.260Z,5.70
2023-02-25T03:15:46.032Z,5.70
2023-02-25T03:19:07.347Z,5.71
2023-02-25T03:22:28.610Z,5.79
2023-02-25T03:25:51.668Z,5.83
2023-02-25T03:29:09.223Z,5.92
2023-02-25T03:32:30.347Z,6.03
2023-02-25T03:35:48.168Z,6.10
2023-02-25T03:39:10.742Z,6.17
2023-02-25T03:42:32.310Z,6.20
2023-02-25T03:45:51.170Z,6.23
2023-02-25T03:52:26.012Z,6.12
2023-02-25T03:55:45.918Z,6.20
2023-02-25T03:59:02.101Z,6.12
2023-02-25T04:02:20.266Z,6.04
2023-02-25T04:05:38.469Z,5.78
2023-02-25T04:08:54.769Z,5.51
2023-02-25T04:12:11.848Z,5.29
2023-02-25T04:15:29.657Z,5.24
2023-02-25T04:19:47.175Z,5.10
2023-02-25T04:23:03.626Z,4.95
2023-02-25T04:26:19.744Z,4.87
2023-02-25T04:29:35.760Z,4.78
2023-02-25T04:32:52.074Z,4.68
2023-02-25T04:36:08.246Z,4.49
2023-02-25T04:39:25.799Z,4.56
2023-02-25T04:42:41.873Z,4.56
2023-02-25T04:45:58.049Z,4.33
2023-02-25T04:52:29.728Z,4.24
2023-02-25T04:55:46.943Z,4.02
2023-02-25T04:59:04.725Z,4.04
2023-02-25T05:02:20.924Z,4.04
2023-02-25T05:08:52.405Z,3.85
2023-02-25T05:12:09.304Z,3.88
2023-02-25T05:15:26.208Z,3.89
2023-02-25T05:18:44.504Z,3.96
2023-02-25T05:25:18.690Z,3.93
2023-02-25T05:28:34.984Z,3.92
2023-02-25T05:31:52.460Z,3.95
2023-02-25T05:35:09.654Z,3.91
2023-02-25T05:38:26.760Z,3.82
2023-02-25T05:41:43.224Z,3.77
2023-02-25T05:44:59.363Z,3.84
2023-02-25T05:48:16.048Z,3.75
2023-02-25T05:51:32.612Z,3.81
2023-02-25T05:54:49.126Z,3.67
2023-02-25T05:58:05.303Z,3.56
2023-02-25T06:01:25.174Z,3.60
2023-02-25T06:04:41.205Z,3.50
2023-02-25T06:07:57.367Z,3.49
2023-02-25T06:11:16.031Z,3.43
2023-02-25T06:14:32.324Z,3.39
2023-02-25T06:17:48.520Z,3.43
2023-02-25T06:21:10.574Z,3.37
2023-02-25T06:24:29.333Z,3.40
2023-02-25T06:27:45.677Z,3.37
2023-02-25T06:31:02.002Z,3.39
2023-02-25T06:34:19.364Z,3.22
2023-02-25T06:37:37.062Z,3.22
2023-02-25T06:40:53.457Z,3.27
2023-02-25T06:44:09.574Z,3.20
2023-02-25T06:47:27.252Z,3.11
2023-02-25T06:53:59.175Z,3.11
2023-02-25T06:57:15.317Z,3.09
2023-02-25T07:00:32.870Z,3.09
2023-02-25T07:03:49.771Z,3.23
2023-02-25T07:10:22.710Z,3.78
2023-02-25T07:13:39.139Z,3.83
2023-02-25T07:17:00.105Z,3.79
2023-02-25T07:20:20.704Z,4.17
2023-02-25T07:23:37.021Z,5.17
2023-02-25T07:26:53.484Z,5.92
2023-02-25T07:30:10.065Z,6.50
2023-02-25T07:33:29.038Z,6.98
2023-02-25T07:36:46.180Z,7.34
2023-02-25T07:40:03.470Z,7.43
2023-02-25T07:43:19.945Z,8.21
2023-02-25T07:46:37.529Z,8.70
2023-02-25T07:49:54.147Z,9.09
2023-02-25T07:53:10.305Z,8.92
2023-02-25T07:56:28.293Z,8.97
2023-02-25T07:59:44.580Z,9.31
2023-02-25T08:03:01.522Z,9.43
2023-02-25T08:06:21.918Z,8.87
2023-02-25T08:09:38.645Z,8.12
2023-02-25T08:12:55.081Z,8.41
2023-02-25T08:16:15.326Z,8.40
2023-02-25T08:24:23.665Z,8.51
2023-02-25T08:27:40.778Z,8.35
2023-02-25T08:30:57.617Z,8.14
2023-02-25T08:34:14.375Z,8.08
2023-02-25T08:40:46.382Z,7.96
2023-02-25T08:44:04.427Z,7.94
2023-02-25T08:47:21.261Z,7.64
2023-02-25T08:50:39.081Z,7.49
2023-02-25T08:54:01.298Z,7.20
2023-02-25T08:57:19.358Z,6.88
2023-02-25T09:00:37.072Z,6.93
2023-02-25T09:03:59.292Z,6.86
2023-02-25T09:10:44.612Z,6.61
2023-02-25T09:13:49.758Z,6.65
2023-02-25T09:17:06.708Z,6.79
2023-02-25T09:20:25.097Z,6.96
2023-02-25T09:23:41.528Z,6.99
2023-02-25T09:26:58.024Z,7.24
2023-02-25T09:30:16.967Z,7.50
2023-02-25T09:33:34.139Z,7.58
2023-02-25T09:36:52.525Z,7.22
2023-02-25T09:40:11.120Z,7.25
2023-02-25T09:43:39.183Z,7.02
2023-02-25T09:47:05.174Z,6.98
2023-02-25T09:50:26.794Z,6.35
2023-02-25T09:53:48.461Z,6.79
2023-02-25T09:57:07.306Z,6.88
2023-02-25T10:00:29.427Z,7.05
2023-02-25T10:04:01.008Z,7.43
2023-02-25T10:07:24.283Z,7.40
2023-02-25T10:10:50.120Z,7.34
2023-02-25T10:14:12.187Z,7.19
2023-02-25T10:17:37.116Z,7.13
2023-02-25T10:24:25.907Z,6.78
2023-02-25T10:27:47.493Z,6.77
2023-02-25T10:31:08.691Z,6.87
2023-02-25T10:34:33.948Z,7.08
2023-02-25T10:41:12.116Z,7.42
2023-02-25T10:44:31.750Z,7.45
2023-02-25T10:48:04.069Z,7.26
2023-02-25T10:51:23.901Z,7.37
2023-02-25T10:54:44.092Z,6.99
2023-02-25T10:58:05.279Z,7.16
2023-02-25T11:01:26.136Z,7.22
2023-02-25T11:04:46.937Z,7.17
2023-02-25T11:08:08.547Z,6.97
2023-02-25T11:11:32.869Z,6.89
2023-02-25T11:14:49.322Z,6.87
2023-02-25T11:18:11.286Z,6.87
2023-02-25T11:21:41.019Z,6.87
2023-02-25T11:25:08.729Z,6.82
2023-02-25T11:28:34.741Z,6.55
2023-02-25T11:31:57.496Z,6.53
2023-02-25T11:36:11.653Z,6.56
2023-02-25T11:39:32.253Z,6.49
2023-02-25T11:42:48.352Z,6.54
2023-02-25T11:46:09.175Z,6.35
2023-02-25T11:49:30.129Z,6.52
2023-02-25T11:52:52.724Z,6.46
2023-02-25T11:56:14.876Z,6.47
2023-02-25T11:59:40.469Z,6.51
2023-02-25T12:03:14.683Z,6.31
2023-02-25T12:06:47.580Z,5.76
2023-02-25T12:10:32.584Z,5.57
2023-02-25T12:14:26.347Z,5.66
2023-02-25T12:18:32.364Z,5.73
2023-02-25T12:22:15.596Z,5.73
2023-02-25T12:25:45.421Z,5.52
2023-02-25T12:29:15.494Z,5.80
2023-02-25T12:32:58.191Z,5.96
2023-02-25T12:40:08.870Z,5.97
2023-02-25T12:43:35.963Z,5.84
2023-02-25T12:47:07.874Z,5.60
2023-02-25T12:56:55.212Z,4.56
2023-02-25T13:00:32.038Z,4.54
2023-02-25T13:04:14.205Z,4.49
2023-02-25T13:11:09.621Z,4.48
2023-02-25T13:14:41.310Z,4.40
2023-02-25T13:18:14.540Z,4.37
2023-02-25T13:24:58.291Z,4.35
2023-02-25T13:28:41.301Z,4.35
2023-02-25T13:32:03.704Z,4.30
2023-02-25T13:35:36.724Z,4.21
2023-02-25T13:42:29.387Z,4.34
2023-02-25T13:46:25.246Z,4.42
2023-02-25T13:50:11.552Z,4.34
2023-02-25T13:54:02.283Z,4.38
2023-02-25T13:57:32.930Z,4.46
2023-02-25T14:01:36.726Z,4.38
2023-02-25T14:05:28.351Z,4.45
2023-02-25T14:12:12.796Z,4.39
2023-02-25T14:15:42.770Z,4.49
2023-02-25T14:19:21.153Z,4.50
2023-02-25T14:26:06.436Z,4.56
2023-02-25T14:29:31.322Z,4.45
2023-02-25T14:33:10.598Z,4.33
2023-02-25T14:36:54.597Z,4.25
2023-02-25T14:40:30.834Z,4.18
2023-02-25T14:43:48.544Z,3.95
2023-02-25T14:47:10.636Z,4.03
2023-02-25T14:50:32.129Z,4.08
2023-02-25T14:57:43.027Z,4.07
2023-02-25T15:01:40.086Z,4.08
2023-02-25T15:05:32.965Z,4.13
2023-02-25T15:09:45.171Z,4.04
2023-02-25T15:13:24.850Z,4.00
2023-02-25T15:17:07.189Z,4.01
2023-02-25T15:20:40.989Z,3.96
2023-02-25T15:24:01.797Z,4.04
2023-02-25T15:28:01.749Z,3.92
2023-02-25T15:31:44.657Z,4.00
2023-02-25T15:35:16.910Z,3.89
2023-02-25T15:38:52.482Z,3.79
2023-02-25T15:42:17.160Z,3.75
2023-02-25T15:45:47.180Z,3.56
2023-02-25T15:49:28.365Z,3.59
2023-02-25T15:53:06.574Z,3.46
2023-02-25T15:56:54.453Z,3.59
2023-02-25T16:00:38.315Z,3.47
2023-02-25T16:03:57.484Z,3.32
2023-02-25T16:10:37.050Z,3.32
2023-02-25T16:13:56.533Z,3.33
2023-02-25T16:17:19.481Z,3.28
2023-02-25T16:20:43.601Z,3.33
2023-02-25T16:27:21.240Z,3.29
2023-02-25T16:30:42.563Z,3.35
2023-02-25T16:34:05.213Z,3.38
2023-02-25T16:37:25.933Z,3.35
2023-02-25T16:40:45.854Z,3.28
2023-02-25T16:44:03.453Z,3.36
2023-02-25T16:47:31.879Z,3.36
2023-02-25T16:50:52.226Z,3.38
2023-02-25T16:54:14.165Z,3.41
2023-02-25T16:57:32.368Z,3.33
2023-02-25T17:01:03.328Z,3.36
2023-02-25T17:04:30.175Z,3.27
2023-02-25T17:11:06.956Z,3.39
2023-02-25T17:14:26.230Z,3.42
2023-02-25T17:17:45.836Z,3.43
2023-02-25T17:21:07.570Z,3.45
2023-02-25T17:27:40.068Z,3.35
2023-02-25T17:31:06.133Z,3.37
2023-02-25T17:34:28.603Z,3.32
2023-02-25T17:41:01.210Z,3.21
2023-02-25T17:44:22.330Z,3.16
2023-02-25T17:47:41.711Z,3.16
2023-02-25T17:51:06.690Z,3.10
2023-02-25T17:57:40.500Z,3.12
2023-02-25T18:01:09.050Z,3.13
2023-02-25T18:04:36.063Z,2.94
2023-02-25T18:08:23.321Z,3.00
2023-02-25T18:11:43.090Z,3.13
2023-02-25T18:15:03.946Z,3.15
2023-02-25T18:18:30.428Z,3.02
2023-02-25T18:22:31.705Z,2.95
2023-02-25T18:25:52.752Z,2.92
2023-02-25T18:29:14.138Z,2.96
2023-02-25T18:32:30.431Z,3.00
2023-02-25T18:35:50.879Z,2.97
2023-02-25T18:39:11.046Z,3.01
2023-02-25T18:42:27.817Z,3.04
2023-02-25T18:45:47.540Z,3.00
2023-02-25T18:49:07.416Z,3.01
2023-02-25T18:55:41.577Z,2.93
2023-02-25T18:58:58.879Z,3.02
2023-02-25T19:02:27.940Z,3.07
2023-02-25T19:05:44.622Z,3.02
2023-02-25T19:12:19.767Z,3.02
2023-02-25T19:15:36.618Z,2.91
2023-02-25T19:18:53.284Z,3.01
2023-02-25T19:22:09.729Z,2.97
2023-02-25T19:25:31.410Z,2.96
2023-02-25T19:28:50.370Z,2.92
2023-02-25T19:32:06.727Z,2.91
2023-02-25T19:35:25.370Z,2.77
2023-02-25T19:38:44.644Z,2.81
2023-02-25T19:42:01.688Z,2.86
2023-02-25T19:45:23.290Z,2.81
2023-02-25T19:48:40.021Z,2.80
2023-02-25T19:51:57.414Z,2.70
2023-02-25T19:58:30.252Z,2.79
2023-02-25T20:01:48.026Z,2.82
2023-02-25T20:05:04.392Z,2.83
2023-02-25T20:08:21.499Z,2.77
2023-02-25T20:11:38.410Z,2.81
2023-02-25T20:14:54.666Z,2.81
2023-02-25T20:18:11.557Z,2.70
2023-02-25T20:21:28.965Z,2.75
2023-02-25T20:24:49.675Z,2.69
2023-02-25T20:28:06.906Z,2.49
2023-02-25T20:31:26.585Z,2.54
2023-02-25T20:34:44.461Z,2.57
2023-02-25T20:41:18.837Z,2.43
2023-02-25T20:44:36.897Z,2.52
2023-02-25T20:47:53.880Z,2.47
2023-02-25T20:51:11.203Z,2.40
2023-02-25T20:57:43.645Z,2.34
2023-02-25T21:01:00.095Z,2.29
2023-02-25T21:04:17.503Z,2.20
2023-02-25T21:10:50.157Z,2.07
2023-02-25T21:14:08.174Z,1.94
2023-02-25T21:17:25.789Z,1.93
2023-02-25T21:20:45.419Z,1.90
2023-02-25T21:27:17.721Z,1.81
2023-02-25T21:30:34.299Z,1.85
2023-02-25T21:33:54.044Z,1.97
2023-02-25T21:37:12.515Z,2.05
2023-02-25T21:40:29.209Z,2.04
2023-02-25T21:43:46.344Z,2.08
2023-02-25T21:47:03.155Z,2.06
2023-02-25T21:50:20.806Z,2.10
2023-02-25T21:53:38.222Z,2.05
2023-02-25T21:56:54.451Z,2.04
2023-02-25T22:00:12.055Z,2.01
2023-02-25T22:03:27.470Z,1.99
2023-02-25T22:06:44.089Z,1.88
2023-02-25T22:10:01.390Z,1.83
2023-02-25T22:13:18.377Z,1.88
2023-02-25T22:16:35.066Z,1.90
2023-02-25T22:19:51.609Z,1.90
2023-02-25T22:23:07.942Z,1.92
2023-02-25T22:26:27.779Z,1.80
2023-02-25T22:29:44.255Z,1.89
2023-02-25T22:33:00.381Z,1.95
2023-02-25T22:36:19.178Z,1.90
2023-02-25T22:39:35.794Z,1.91
2023-02-25T22:42:52.253Z,1.90
2023-02-25T22:46:19.382Z,1.98
2023-02-25T22:49:35.704Z,1.92
2023-02-25T22:53:56.332Z,1.94
2023-02-25T22:57:12.654Z,1.76
2023-02-25T23:00:29.182Z,1.79
2023-02-25T23:03:46.035Z,1.92
2023-02-25T23:07:04.755Z,1.87
2023-02-25T23:10:22.083Z,1.85
2023-02-25T23:13:38.336Z,1.93
2023-02-25T23:16:55.118Z,1.92
2023-02-25T23:20:12.524Z,1.92
2023-02-25T23:23:30.669Z,1.92
2023-02-25T23:26:51.213Z,1.79
2023-02-25T23:30:07.629Z,1.91
2023-02-25T23:33:23.925Z,1.92
2023-02-25T23:36:40.499Z,1.84
2023-02-25T23:43:12.669Z,1.88
2023-02-25T23:46:30.069Z,1.78
2023-02-25T23:49:46.344Z,1.75
2023-02-25T23:57:30.519Z,1.69
